Austell, Georgia
Current Conditions -  °F | °C
As of 10:53 PM on Wednesday 17 Dec 2014 (Local Time) from KFTY Reporting Station
Clear Clear  
Wind Chill: 38°   Ceiling: Unl
Heat Index: 38°   Visibility: 10mi
Dew Point: 33°   Wind: 3mph
Humidity: 83%   Direction: 290°WNW
Pressure: 30.16"   Gusts: NA
Location:  33.82°N, 84.64°W
Report Text: KFTY 180353Z 29003KT 10SM CLR 03/01 A3016 RMK AO2 SLP214 T00330006
Loading
Personal Weather Stations






























Interactive Weather Map New forecast layout! Learn more

10-Day Weather Forecast

Advertisements
Track Severe Weather on mobile